< < Back
Terminal Aerodrome Forecast


Current Version              Previous Versions:   1  2  3  4  5  6  7  8  9  

Terminal Aerodrome Forecast

273
FTUS44 KMRX 201122
TAFTYS
TAF
KTYS 201122Z 2012/2112 01003KT P6SM BKN040 OVC100
     FM201700 35005KT P6SM SCT050 BKN100
     FM210000 VRB03KT P6SM SCT200
     FM210800 VRB02KT 3SM BR FEW005=



Latest METAR

193
SAUS80 KWBC 201200 RRC
MTRTYS
METAR KTYS 201153Z 01004KT 10SM -RA BKN036 OVC050 03/00 A3019 RMK AO2
RAB14 SLP225 P0000 60000 T00280000 10033 20028 53003


USA.gov is the U.S. government's official web portal to all federal, state and local government web resources and services.